createdAt,value
2023-02-11T00:02:24.286Z,17.87
2023-02-11T00:05:26.234Z,19.53
2023-02-11T00:08:28.675Z,18.90
2023-02-11T00:11:30.729Z,22.07
2023-02-11T00:14:32.695Z,17.23
2023-02-11T00:17:34.657Z,18.57
2023-02-11T00:20:39.226Z,19.33
2023-02-11T00:23:41.796Z,21.67
2023-02-11T00:26:43.783Z,18.57
2023-02-11T00:29:45.836Z,18.43
2023-02-11T00:32:47.774Z,18.57
2023-02-11T00:35:50.151Z,20.13
2023-02-11T00:38:55.268Z,21.23
2023-02-11T00:41:58.120Z,20.17
2023-02-11T00:45:00.085Z,22.20
2023-02-11T00:48:02.080Z,21.07
2023-02-11T00:51:04.483Z,22.90
2023-02-11T00:54:06.549Z,20.20
2023-02-11T00:57:08.484Z,21.73
2023-02-11T01:00:14.059Z,22.30
2023-02-11T01:03:16.175Z,23.73
2023-02-11T01:06:18.990Z,19.93
2023-02-11T01:09:21.345Z,24.67
2023-02-11T01:12:23.580Z,23.50
2023-02-11T01:15:26.049Z,24.43
2023-02-11T01:18:28.206Z,21.57
2023-02-11T01:21:30.248Z,24.40
2023-02-11T01:24:32.359Z,22.63
2023-02-11T01:27:35.054Z,20.93
2023-02-11T01:30:37.048Z,19.40
2023-02-11T01:33:39.173Z,20.97
2023-02-11T01:36:42.073Z,22.90
2023-02-11T01:39:44.129Z,21.80
2023-02-11T01:42:49.433Z,23.73
2023-02-11T01:45:56.022Z,25.03
2023-02-11T01:49:05.412Z,26.00
2023-02-11T01:52:13.029Z,23.83
2023-02-11T01:55:34.239Z,24.60
2023-02-11T01:58:41.726Z,21.70
2023-02-11T02:01:49.289Z,25.13
2023-02-11T02:05:02.757Z,21.60
2023-02-11T02:08:44.458Z,23.63
2023-02-11T02:11:46.391Z,25.53
2023-02-11T02:14:48.973Z,25.70
2023-02-11T02:18:24.730Z,24.47
2023-02-11T02:22:04.248Z,26.17
2023-02-11T02:25:12.935Z,24.90
2023-02-11T02:28:49.926Z,22.47
2023-02-11T02:32:10.466Z,25.13
2023-02-11T02:35:24.647Z,25.47
2023-02-11T02:38:41.044Z,24.23
2023-02-11T02:41:44.297Z,23.20
2023-02-11T02:44:53.555Z,27.33
2023-02-11T02:47:56.021Z,26.80
2023-02-11T02:51:06.650Z,23.90
2023-02-11T02:54:39.145Z,30.27
2023-02-11T02:58:05.559Z,28.77
2023-02-11T03:01:22.234Z,29.33
2023-02-11T03:04:40.299Z,24.53
2023-02-11T03:07:52.407Z,28.90
2023-02-11T03:10:56.943Z,34.47
2023-02-11T03:14:04.125Z,30.77
2023-02-11T03:17:08.772Z,31.33
2023-02-11T03:20:14.800Z,25.87
2023-02-11T03:23:28.480Z,27.93
2023-02-11T03:27:07.043Z,33.60
2023-02-11T03:30:22.865Z,25.07
2023-02-11T03:33:29.407Z,26.70
2023-02-11T03:36:51.823Z,27.03
2023-02-11T03:39:59.667Z,37.50
2023-02-11T03:43:09.161Z,25.50
2023-02-11T03:46:15.339Z,30.73
2023-02-11T03:49:21.655Z,29.83
2023-02-11T03:52:26.649Z,30.40
2023-02-11T03:55:30.256Z,28.73
2023-02-11T03:58:32.189Z,27.03
2023-02-11T04:01:34.436Z,32.63
2023-02-11T04:04:36.429Z,27.87
2023-02-11T04:07:38.372Z,28.87
2023-02-11T04:10:40.308Z,32.00
2023-02-11T04:13:42.268Z,29.13
2023-02-11T04:16:44.366Z,28.67
2023-02-11T04:19:46.377Z,34.77
2023-02-11T04:22:48.409Z,31.90
2023-02-11T04:25:51.316Z,30.17
2023-02-11T04:28:53.387Z,30.87
2023-02-11T04:31:55.909Z,29.20
2023-02-11T04:34:57.961Z,33.00
2023-02-11T04:37:59.846Z,29.60
2023-02-11T04:41:01.826Z,27.97
2023-02-11T04:44:04.233Z,27.50
2023-02-11T04:47:06.982Z,26.10
2023-02-11T04:50:09.471Z,31.03
2023-02-11T04:53:11.387Z,29.67
2023-02-11T04:56:13.336Z,32.50
2023-02-11T04:59:15.662Z,30.60
2023-02-11T05:02:17.709Z,30.53
2023-02-11T05:05:19.761Z,31.20
2023-02-11T05:08:21.818Z,33.37
2023-02-11T05:11:25.811Z,28.57
2023-02-11T05:14:27.800Z,29.33
2023-02-11T05:17:29.768Z,32.67
2023-02-11T05:20:31.787Z,26.27
2023-02-11T05:23:34.379Z,29.77
2023-02-11T05:26:36.491Z,29.27
2023-02-11T05:29:38.728Z,26.40
2023-02-11T05:32:40.826Z,28.70
2023-02-11T05:35:42.830Z,29.20
2023-02-11T05:38:44.753Z,25.33
2023-02-11T05:41:46.716Z,30.07
2023-02-11T05:44:50.630Z,23.33
2023-02-11T05:47:52.752Z,26.63
2023-02-11T05:50:54.752Z,26.43
2023-02-11T05:53:56.658Z,29.30
2023-02-11T05:56:58.647Z,24.50
2023-02-11T06:00:00.664Z,28.53
2023-02-11T06:03:04.569Z,24.73
2023-02-11T06:06:10.636Z,22.80
2023-02-11T06:09:12.642Z,25.30
2023-02-11T06:12:14.558Z,24.77
2023-02-11T06:15:16.612Z,25.73
2023-02-11T06:18:18.529Z,25.50
2023-02-11T06:21:20.495Z,26.07
2023-02-11T06:24:47.647Z,25.63
2023-02-11T06:27:44.623Z,25.73
2023-02-11T06:30:46.652Z,23.83
2023-02-11T06:33:50.318Z,26.70
2023-02-11T06:36:52.286Z,26.07
2023-02-11T06:39:54.273Z,23.03
2023-02-11T06:42:56.282Z,25.43
2023-02-11T06:45:58.298Z,25.00
2023-02-11T06:49:00.157Z,23.37
2023-02-11T06:52:02.184Z,22.40
2023-02-11T06:55:04.364Z,25.93
2023-02-11T06:58:06.667Z,20.60
2023-02-11T07:01:11.417Z,23.57
2023-02-11T07:04:14.917Z,23.40
2023-02-11T07:07:16.870Z,22.80
2023-02-11T07:10:18.949Z,28.53
2023-02-11T07:13:20.868Z,21.93
2023-02-11T07:16:23.457Z,19.60
2023-02-11T07:19:25.473Z,21.57
2023-02-11T07:22:27.599Z,27.07
2023-02-11T07:25:29.657Z,22.90
2023-02-11T07:28:31.947Z,26.73
2023-02-11T07:31:34.251Z,20.53
2023-02-11T07:34:36.291Z,23.77
2023-02-11T07:37:38.337Z,21.03
2023-02-11T07:40:40.478Z,20.93
2023-02-11T07:43:42.930Z,21.77
2023-02-11T07:46:45.780Z,21.80
2023-02-11T07:49:47.860Z,21.50
2023-02-11T07:52:49.836Z,21.60
2023-02-11T07:55:52.099Z,21.63
2023-02-11T07:58:55.370Z,20.77
2023-02-11T08:01:57.521Z,21.63
2023-02-11T08:04:59.512Z,19.07
2023-02-11T08:08:01.480Z,18.40
2023-02-11T08:11:08.668Z,19.50
2023-02-11T08:14:11.917Z,20.47
2023-02-11T08:17:13.842Z,15.23
2023-02-11T08:20:15.943Z,22.03
2023-02-11T08:23:17.901Z,21.97
2023-02-11T08:26:25.880Z,21.47
2023-02-11T08:29:27.893Z,19.93
2023-02-11T08:32:29.904Z,24.10
2023-02-11T08:35:36.598Z,22.13
2023-02-11T08:38:38.755Z,24.40
2023-02-11T08:41:40.841Z,24.47
2023-02-11T08:44:43.432Z,26.47
2023-02-11T08:47:45.408Z,26.30
2023-02-11T08:50:47.518Z,22.13
2023-02-11T08:53:50.872Z,19.40
2023-02-11T08:56:52.798Z,17.80
2023-02-11T08:59:54.843Z,22.37
2023-02-11T09:02:56.790Z,23.03
2023-02-11T09:05:58.764Z,22.63
2023-02-11T09:09:00.696Z,23.23
2023-02-11T09:12:02.660Z,21.23
2023-02-11T09:15:04.942Z,23.93
2023-02-11T09:18:07.579Z,21.30
2023-02-11T09:21:10.447Z,23.83
2023-02-11T09:24:12.519Z,20.47
2023-02-11T09:27:14.560Z,24.10
2023-02-11T09:30:16.517Z,21.10
2023-02-11T09:33:18.610Z,23.60
2023-02-11T09:36:31.873Z,22.80
2023-02-11T09:39:33.854Z,21.50
2023-02-11T09:42:53.967Z,24.20
2023-02-11T09:45:56.683Z,24.67
2023-02-11T09:49:00.279Z,23.03
2023-02-11T09:52:07.716Z,22.13
2023-02-11T09:55:27.548Z,19.97
2023-02-11T09:58:39.159Z,21.33
2023-02-11T10:02:04.891Z,20.43
2023-02-11T10:05:13.920Z,20.87
2023-02-11T10:09:12.871Z,19.37
2023-02-11T10:12:39.201Z,19.47
2023-02-11T10:16:15.069Z,20.07
2023-02-11T10:20:01.259Z,16.50
2023-02-11T10:23:13.593Z,17.40
2023-02-11T10:26:18.669Z,15.33
2023-02-11T10:29:42.294Z,17.43
2023-02-11T10:32:52.868Z,15.30
2023-02-11T10:35:54.911Z,15.33
2023-02-11T10:39:10.755Z,15.70
2023-02-11T10:42:14.597Z,15.27
2023-02-11T10:45:27.835Z,18.73
2023-02-11T10:48:53.019Z,15.90
2023-02-11T10:52:14.326Z,16.17
2023-02-11T10:55:21.306Z,16.20
2023-02-11T10:58:45.850Z,18.03
2023-02-11T11:02:00.775Z,14.63
2023-02-11T11:05:16.420Z,15.23
2023-02-11T11:08:19.925Z,15.67
2023-02-11T11:11:26.413Z,13.60
2023-02-11T11:14:29.761Z,15.50
2023-02-11T11:17:31.837Z,15.10
2023-02-11T11:20:36.324Z,14.97
2023-02-11T11:23:40.122Z,13.70
2023-02-11T11:26:45.352Z,13.93
2023-02-11T11:29:50.265Z,14.27
2023-02-11T11:32:52.705Z,14.67
2023-02-11T11:36:21.263Z,13.07
2023-02-11T11:39:27.994Z,15.73
2023-02-11T11:42:34.948Z,15.20
2023-02-11T11:45:37.063Z,15.00
2023-02-11T11:48:42.699Z,14.23
2023-02-11T11:51:55.224Z,16.40
2023-02-11T11:55:22.601Z,15.63
2023-02-11T11:58:24.826Z,15.70
2023-02-11T12:01:45.739Z,14.80
2023-02-11T12:04:54.057Z,18.80
2023-02-11T12:08:29.335Z,13.03
2023-02-11T12:11:38.390Z,12.33
2023-02-11T12:14:43.010Z,12.60
2023-02-11T12:18:13.085Z,12.13
2023-02-11T12:21:43.085Z,12.50
2023-02-11T12:24:45.191Z,8.83
2023-02-11T12:28:02.310Z,8.00
2023-02-11T12:31:19.514Z,10.10
2023-02-11T12:34:24.893Z,11.53
2023-02-11T12:37:26.975Z,9.93
2023-02-11T12:40:59.455Z,11.27
2023-02-11T12:44:01.886Z,12.17
2023-02-11T12:47:29.106Z,10.60
2023-02-11T12:50:34.274Z,10.67
2023-02-11T12:54:10.436Z,11.40
2023-02-11T12:57:37.447Z,13.93
2023-02-11T13:00:47.864Z,13.30
2023-02-11T13:04:20.262Z,17.10
2023-02-11T13:07:37.282Z,15.53
2023-02-11T13:10:43.729Z,15.10
2023-02-11T13:13:46.335Z,12.20
2023-02-11T13:16:51.190Z,10.63
2023-02-11T13:20:03.936Z,16.47
2023-02-11T13:23:32.180Z,14.43
2023-02-11T13:26:58.289Z,13.00
2023-02-11T13:30:22.770Z,15.03
2023-02-11T13:33:36.307Z,15.67
2023-02-11T13:36:39.875Z,16.63
2023-02-11T13:39:42.040Z,17.70
2023-02-11T13:42:53.330Z,16.10
2023-02-11T13:46:01.400Z,16.77
2023-02-11T13:49:03.643Z,20.23
2023-02-11T13:52:18.921Z,17.93
2023-02-11T13:55:24.507Z,15.40
2023-02-11T13:58:30.062Z,18.43
2023-02-11T14:02:12.693Z,17.43
2023-02-11T14:05:50.398Z,19.57
2023-02-11T14:09:11.980Z,16.53
2023-02-11T14:12:24.397Z,17.23
2023-02-11T14:15:38.351Z,22.67
2023-02-11T14:18:52.853Z,19.80
2023-02-11T14:22:12.146Z,19.53
2023-02-11T14:25:23.243Z,18.87
2023-02-11T14:28:34.595Z,16.07
2023-02-11T14:31:55.522Z,22.07
2023-02-11T14:35:37.829Z,20.63
2023-02-11T14:38:52.414Z,18.87
2023-02-11T14:41:55.573Z,20.63
2023-02-11T14:45:04.835Z,20.33
2023-02-11T14:48:17.957Z,23.53
2023-02-11T14:51:29.136Z,22.77
2023-02-11T14:54:32.578Z,18.87
2023-02-11T14:57:35.776Z,22.53
2023-02-11T15:01:14.104Z,22.40
2023-02-11T15:04:40.766Z,23.07
2023-02-11T15:07:52.438Z,18.07
2023-02-11T15:10:55.996Z,19.97
2023-02-11T15:14:07.234Z,17.63
2023-02-11T15:17:10.096Z,18.50
2023-02-11T15:20:26.288Z,18.47
2023-02-11T15:23:31.026Z,19.10
2023-02-11T15:26:34.068Z,18.40
2023-02-11T15:29:40.069Z,17.17
2023-02-11T15:32:45.405Z,14.20
2023-02-11T15:35:47.845Z,14.53
2023-02-11T15:39:29.449Z,13.97
2023-02-11T15:42:43.887Z,13.30
2023-02-11T15:46:02.494Z,12.43
2023-02-11T15:49:06.756Z,13.67
2023-02-11T15:52:09.937Z,13.57
2023-02-11T15:55:14.954Z,11.27
2023-02-11T15:58:18.699Z,11.23
2023-02-11T16:01:34.280Z,9.83
2023-02-11T16:04:38.322Z,12.07
2023-02-11T16:07:48.080Z,12.47
2023-02-11T16:11:02.692Z,11.63
2023-02-11T16:14:22.367Z,9.33
2023-02-11T16:17:31.064Z,11.83
2023-02-11T16:20:34.955Z,11.17
2023-02-11T16:23:45.428Z,9.17
2023-02-11T16:26:53.274Z,8.57
2023-02-11T16:29:57.168Z,9.53
2023-02-11T16:32:59.942Z,11.47
2023-02-11T16:36:20.039Z,11.90
2023-02-11T16:39:23.370Z,11.60
2023-02-11T16:42:26.067Z,12.63
2023-02-11T16:45:29.040Z,11.43
2023-02-11T16:48:33.536Z,10.67
2023-02-11T16:51:41.446Z,12.27
2023-02-11T16:54:44.710Z,11.10
2023-02-11T16:57:47.680Z,12.60
2023-02-11T17:00:52.052Z,11.43
2023-02-11T17:03:56.628Z,14.33
2023-02-11T17:06:59.909Z,11.67
2023-02-11T17:10:03.018Z,13.07
2023-02-11T17:13:06.035Z,12.77
2023-02-11T17:16:21.045Z,11.17
2023-02-11T17:19:24.805Z,12.67
2023-02-11T17:22:27.811Z,11.80
2023-02-11T17:25:30.900Z,14.90
2023-02-11T17:28:34.873Z,12.63
2023-02-11T17:31:38.087Z,11.37
2023-02-11T17:34:41.411Z,13.67
2023-02-11T17:37:43.971Z,16.10
2023-02-11T17:40:46.933Z,13.77
2023-02-11T17:43:49.940Z,13.50
2023-02-11T17:46:54.151Z,17.50
2023-02-11T17:49:57.607Z,13.83
2023-02-11T17:53:01.246Z,14.93
2023-02-11T17:56:06.686Z,14.53
2023-02-11T17:59:11.803Z,13.93
2023-02-11T18:02:15.012Z,17.07
2023-02-11T18:05:17.922Z,14.80
2023-02-11T18:08:22.266Z,14.83
2023-02-11T18:11:45.230Z,14.60
2023-02-11T18:14:47.983Z,15.27
2023-02-11T18:17:50.990Z,16.07
2023-02-11T18:21:02.128Z,16.60
2023-02-11T18:24:07.048Z,14.57
2023-02-11T18:27:10.172Z,15.67
2023-02-11T18:30:18.363Z,14.60
2023-02-11T18:33:21.358Z,13.60
2023-02-11T18:36:24.115Z,14.90
2023-02-11T18:39:26.819Z,16.30
2023-02-11T18:42:30.001Z,14.53
2023-02-11T18:45:33.179Z,16.03
2023-02-11T18:48:39.776Z,15.80
2023-02-11T18:51:42.473Z,18.37
2023-02-11T18:54:47.269Z,16.47
2023-02-11T18:57:50.306Z,19.27
2023-02-11T19:00:53.302Z,16.80
2023-02-11T19:04:00.038Z,20.30
2023-02-11T19:07:05.171Z,14.37
2023-02-11T19:10:09.515Z,15.00
2023-02-11T19:13:14.293Z,14.10
2023-02-11T19:16:20.594Z,17.27
2023-02-11T19:19:26.022Z,20.37
2023-02-11T19:22:29.375Z,17.00
2023-02-11T19:25:32.830Z,16.80
2023-02-11T19:28:38.109Z,16.30
2023-02-11T19:31:41.734Z,16.67
2023-02-11T19:34:45.120Z,15.77
2023-02-11T19:37:48.515Z,17.47
2023-02-11T19:40:57.264Z,19.53
2023-02-11T19:44:02.238Z,14.33
2023-02-11T19:47:05.596Z,16.87
2023-02-11T19:50:10.948Z,16.23
2023-02-11T19:53:14.096Z,16.33
2023-02-11T19:56:19.766Z,18.90
2023-02-11T19:59:23.936Z,19.23
2023-02-11T20:02:26.868Z,17.00
2023-02-11T20:05:29.801Z,17.10
2023-02-11T20:08:35.345Z,18.37
2023-02-11T20:11:40.138Z,17.57
2023-02-11T20:14:43.306Z,17.30
2023-02-11T20:17:47.626Z,18.37
2023-02-11T20:20:50.642Z,19.67
2023-02-11T20:23:54.580Z,15.93
2023-02-11T20:26:57.893Z,17.17
2023-02-11T20:30:01.123Z,17.20
2023-02-11T20:33:05.643Z,17.30
2023-02-11T20:36:15.536Z,17.77
2023-02-11T20:39:19.353Z,16.17
2023-02-11T20:42:23.418Z,18.10
2023-02-11T20:45:27.486Z,18.53
2023-02-11T20:48:31.041Z,17.47
2023-02-11T20:51:34.925Z,17.43
2023-02-11T20:54:39.197Z,17.17
2023-02-11T20:57:41.892Z,17.50
2023-02-11T21:00:46.387Z,18.77
2023-02-11T21:04:05.798Z,18.37
2023-02-11T21:07:08.747Z,16.93
2023-02-11T21:10:11.713Z,16.60
2023-02-11T21:13:14.509Z,19.47
2023-02-11T21:16:25.215Z,18.93
2023-02-11T21:19:28.561Z,18.10
2023-02-11T21:22:31.974Z,15.87
2023-02-11T21:25:35.292Z,17.17
2023-02-11T21:28:40.890Z,19.07
2023-02-11T21:31:44.348Z,18.53
2023-02-11T21:34:48.252Z,19.40
2023-02-11T21:37:51.094Z,15.60
2023-02-11T21:40:55.327Z,19.97
2023-02-11T21:43:58.190Z,20.47
2023-02-11T21:47:01.094Z,15.47
2023-02-11T21:50:03.942Z,14.57
2023-02-11T21:53:07.127Z,17.37
2023-02-11T21:56:13.166Z,18.97
2023-02-11T21:59:16.975Z,17.27
2023-02-11T22:02:19.434Z,19.43
2023-02-11T22:05:22.188Z,21.53
2023-02-11T22:08:24.267Z,17.77
2023-02-11T22:11:26.443Z,19.70
2023-02-11T22:14:31.261Z,18.13
2023-02-11T22:17:34.785Z,19.23
2023-02-11T22:20:36.923Z,16.87
2023-02-11T22:23:40.099Z,19.37
2023-02-11T22:26:42.165Z,19.73
2023-02-11T22:29:44.782Z,21.87
2023-02-11T22:32:47.615Z,18.07
2023-02-11T22:35:49.771Z,19.23
2023-02-11T22:38:52.453Z,20.57
2023-02-11T22:41:56.578Z,18.77
2023-02-11T22:44:58.567Z,20.57
2023-02-11T22:48:00.690Z,17.70
2023-02-11T22:51:19.584Z,19.13
2023-02-11T22:54:21.713Z,18.83
2023-02-11T22:57:23.765Z,18.67
2023-02-11T23:00:26.661Z,19.27
2023-02-11T23:03:29.292Z,18.17
2023-02-11T23:06:31.668Z,17.57
2023-02-11T23:09:33.647Z,20.23
2023-02-11T23:12:35.592Z,21.33
2023-02-11T23:15:42.340Z,20.20
2023-02-11T23:18:46.516Z,21.07
2023-02-11T23:21:51.124Z,18.57
2023-02-11T23:24:53.301Z,19.27
2023-02-11T23:27:55.215Z,19.57
2023-02-11T23:30:57.281Z,17.33
2023-02-11T23:33:59.642Z,17.83
2023-02-11T23:37:01.552Z,19.53
2023-02-11T23:40:04.430Z,15.77
2023-02-11T23:43:06.380Z,20.03
2023-02-11T23:46:09.331Z,17.33
2023-02-11T23:49:11.413Z,15.67
2023-02-11T23:52:13.376Z,15.97
2023-02-11T23:55:15.397Z,12.53
2023-02-11T23:58:17.429Z,18.47
